createdAt,value
2022-10-01T00:01:27.928Z,25.70
2022-10-01T00:03:56.163Z,25.70
2022-10-01T00:06:24.287Z,25.70
2022-10-01T00:08:52.963Z,25.70
2022-10-01T00:11:23.935Z,25.70
2022-10-01T00:13:54.165Z,25.70
2022-10-01T00:16:24.942Z,25.80
2022-10-01T00:18:54.091Z,25.90
2022-10-01T00:21:31.596Z,26.10
2022-10-01T00:24:03.625Z,26.20
2022-10-01T00:26:36.790Z,26.10
2022-10-01T00:29:10.947Z,25.90
2022-10-01T00:31:39.819Z,25.80
2022-10-01T00:34:08.267Z,25.80
2022-10-01T00:36:36.309Z,25.80
2022-10-01T00:39:04.580Z,25.80
2022-10-01T00:41:35.534Z,25.80
2022-10-01T00:44:32.007Z,25.80
2022-10-01T00:47:12.766Z,25.90
2022-10-01T00:49:41.738Z,26.00
2022-10-01T00:52:15.431Z,25.80
2022-10-01T00:54:54.819Z,25.90
2022-10-01T00:57:26.340Z,25.90
2022-10-01T00:59:58.040Z,25.80
2022-10-01T01:02:26.508Z,25.70
2022-10-01T01:04:54.726Z,25.80
2022-10-01T01:07:23.258Z,25.90
2022-10-01T01:09:52.816Z,25.90
2022-10-01T01:12:51.443Z,26.00
2022-10-01T01:15:40.453Z,26.10
2022-10-01T01:18:19.626Z,25.90
2022-10-01T01:21:13.798Z,25.80
2022-10-01T01:24:04.075Z,25.70
2022-10-01T01:26:44.208Z,25.60
2022-10-01T01:29:18.024Z,25.70
2022-10-01T01:31:48.002Z,25.70
2022-10-01T01:34:27.625Z,25.60
2022-10-01T01:37:08.888Z,25.80
2022-10-01T01:39:37.714Z,25.80
2022-10-01T01:42:09.978Z,25.80
2022-10-01T01:44:41.612Z,25.80
2022-10-01T01:47:11.049Z,25.80
2022-10-01T01:49:39.750Z,25.90
2022-10-01T01:52:13.802Z,25.80
2022-10-01T01:54:43.906Z,25.80
2022-10-01T01:57:12.897Z,25.80
2022-10-01T01:59:42.110Z,25.90
2022-10-01T02:02:26.488Z,26.00
2022-10-01T02:04:59.538Z,26.00
2022-10-01T02:07:47.469Z,26.00
2022-10-01T02:10:55.903Z,26.00
2022-10-01T02:13:36.972Z,25.80
2022-10-01T02:16:14.114Z,25.70
2022-10-01T02:18:45.290Z,25.60
2022-10-01T02:21:26.693Z,25.50
2022-10-01T02:24:19.420Z,25.50
2022-10-01T02:26:50.366Z,25.50
2022-10-01T02:29:21.394Z,25.50
2022-10-01T02:31:51.732Z,25.60
2022-10-01T02:34:21.619Z,25.50
2022-10-01T02:36:51.672Z,25.40
2022-10-01T02:39:22.603Z,25.40
2022-10-01T02:41:52.281Z,25.30
2022-10-01T02:44:26.764Z,25.30
2022-10-01T02:47:08.041Z,25.30
2022-10-01T02:49:37.789Z,25.40
2022-10-01T02:52:33.412Z,25.40
2022-10-01T02:55:09.762Z,25.70
2022-10-01T02:57:38.503Z,25.80
2022-10-01T03:00:17.285Z,25.90
2022-10-01T03:02:45.628Z,25.70
2022-10-01T03:05:14.010Z,25.60
2022-10-01T03:07:42.205Z,25.50
2022-10-01T03:10:15.183Z,25.40
2022-10-01T03:12:44.356Z,25.40
2022-10-01T03:15:13.762Z,25.40
2022-10-01T03:17:41.931Z,25.30
2022-10-01T03:20:11.059Z,25.40
2022-10-01T03:22:39.307Z,25.60
2022-10-01T03:25:07.807Z,25.60
2022-10-01T03:27:35.841Z,25.50
2022-10-01T03:30:04.230Z,25.40
2022-10-01T03:32:33.278Z,25.20
2022-10-01T03:35:01.685Z,25.00
2022-10-01T03:37:29.919Z,25.10
2022-10-01T03:39:58.135Z,25.10
2022-10-01T03:42:26.505Z,25.20
2022-10-01T03:44:54.543Z,25.30
2022-10-01T03:47:22.779Z,25.30
2022-10-01T03:49:51.317Z,25.40
2022-10-01T03:52:19.499Z,25.50
2022-10-01T03:54:47.635Z,25.30
2022-10-01T03:57:15.909Z,25.10
2022-10-01T03:59:44.026Z,25.00
2022-10-01T04:02:12.273Z,25.00
2022-10-01T04:04:40.682Z,25.00
2022-10-01T04:07:08.719Z,25.00
2022-10-01T04:09:36.874Z,25.00
2022-10-01T04:12:05.237Z,25.00
2022-10-01T04:14:33.276Z,25.20
2022-10-01T04:17:01.370Z,25.20
2022-10-01T04:19:29.512Z,25.30
2022-10-01T04:21:57.677Z,25.10
2022-10-01T04:24:25.903Z,25.10
2022-10-01T04:26:53.989Z,25.00
2022-10-01T04:29:22.357Z,25.00
2022-10-01T04:31:50.541Z,25.10
2022-10-01T04:34:18.778Z,25.00
2022-10-01T04:36:46.979Z,25.00
2022-10-01T04:39:15.087Z,25.10
2022-10-01T04:41:43.208Z,25.20
2022-10-01T04:44:11.477Z,25.20
2022-10-01T04:46:39.626Z,25.20
2022-10-01T04:49:07.946Z,25.30
2022-10-01T04:51:36.326Z,25.10
2022-10-01T04:54:04.659Z,25.10
2022-10-01T04:56:32.769Z,25.00
2022-10-01T04:59:00.948Z,25.00
2022-10-01T05:01:29.239Z,25.00
2022-10-01T05:03:57.490Z,25.00
2022-10-01T05:06:25.799Z,25.00
2022-10-01T05:08:53.971Z,25.10
2022-10-01T05:11:22.124Z,25.20
2022-10-01T05:13:50.257Z,25.20
2022-10-01T05:16:18.553Z,25.00
2022-10-01T05:18:46.716Z,25.00
2022-10-01T05:21:15.127Z,24.90
2022-10-01T05:23:43.318Z,24.80
2022-10-01T05:26:11.480Z,24.90
2022-10-01T05:28:40.425Z,24.90
2022-10-01T05:31:08.713Z,25.00
2022-10-01T05:33:37.011Z,25.10
2022-10-01T05:36:07.245Z,25.00
2022-10-01T05:38:35.628Z,25.10
2022-10-01T05:41:05.393Z,25.10
2022-10-01T05:43:33.583Z,25.00
2022-10-01T05:46:05.136Z,24.80
2022-10-01T05:48:33.432Z,24.80
2022-10-01T05:51:01.553Z,24.80
2022-10-01T05:53:29.803Z,24.80
2022-10-01T05:56:00.132Z,24.70
2022-10-01T05:58:28.435Z,24.70
2022-10-01T06:00:56.937Z,24.70
2022-10-01T06:03:25.365Z,24.80
2022-10-01T06:05:53.518Z,25.00
2022-10-01T06:08:21.738Z,25.00
2022-10-01T06:10:50.700Z,24.80
2022-10-01T06:13:18.800Z,24.80
2022-10-01T06:15:47.447Z,24.70
2022-10-01T06:18:15.698Z,24.70
2022-10-01T06:20:43.688Z,24.60
2022-10-01T06:23:14.559Z,24.60
2022-10-01T06:25:44.161Z,24.70
2022-10-01T06:28:14.019Z,24.70
2022-10-01T06:30:42.712Z,24.80
2022-10-01T06:33:13.870Z,24.90
2022-10-01T06:35:48.571Z,25.00
2022-10-01T06:38:18.849Z,25.00
2022-10-01T06:40:56.063Z,24.80
2022-10-01T06:43:26.286Z,24.80
2022-10-01T06:45:54.850Z,24.70
2022-10-01T06:48:23.788Z,24.70
2022-10-01T06:50:52.060Z,24.70
2022-10-01T06:53:20.106Z,24.70
2022-10-01T06:55:48.299Z,24.70
2022-10-01T06:58:19.180Z,24.70
2022-10-01T07:00:48.347Z,24.80
2022-10-01T07:03:19.399Z,24.80
2022-10-01T07:05:48.651Z,24.90
2022-10-01T07:08:17.186Z,25.00
2022-10-01T07:10:45.558Z,25.00
2022-10-01T07:13:18.661Z,24.90
2022-10-01T07:15:47.311Z,24.90
2022-10-01T07:18:15.457Z,24.90
2022-10-01T07:20:43.860Z,24.90
2022-10-01T07:23:13.611Z,25.00
2022-10-01T07:25:42.755Z,25.00
2022-10-01T07:28:16.768Z,25.00
2022-10-01T07:31:06.600Z,25.10
2022-10-01T07:33:34.921Z,25.30
2022-10-01T07:36:05.562Z,25.40
2022-10-01T07:38:34.378Z,25.50
2022-10-01T07:41:03.152Z,25.50
2022-10-01T07:43:32.609Z,25.30
2022-10-01T07:46:00.855Z,25.20
2022-10-01T07:48:29.154Z,25.20
2022-10-01T07:50:57.421Z,25.20
2022-10-01T07:53:25.767Z,25.30
2022-10-01T07:55:53.780Z,25.30
2022-10-01T07:58:22.066Z,25.40
2022-10-01T08:00:50.492Z,25.50
2022-10-01T08:03:18.764Z,25.90
2022-10-01T08:05:46.797Z,26.20
2022-10-01T08:08:15.103Z,26.30
2022-10-01T08:10:43.175Z,26.30
2022-10-01T08:13:14.482Z,26.30
2022-10-01T08:15:49.214Z,26.20
2022-10-01T08:18:17.451Z,26.20
2022-10-01T08:20:45.824Z,26.30
2022-10-01T08:23:15.461Z,26.30
2022-10-01T08:25:45.160Z,26.10
2022-10-01T08:28:13.301Z,26.10
2022-10-01T08:30:43.015Z,26.00
2022-10-01T08:33:13.260Z,25.90
2022-10-01T08:35:42.641Z,25.90
2022-10-01T08:38:11.535Z,26.00
2022-10-01T08:40:51.238Z,26.10
2022-10-01T08:43:37.428Z,26.10
2022-10-01T08:46:18.565Z,26.30
2022-10-01T08:48:57.634Z,26.50
2022-10-01T08:51:38.181Z,26.50
2022-10-01T08:54:27.720Z,26.40
2022-10-01T08:56:59.995Z,26.50
2022-10-01T08:59:49.264Z,27.30
2022-10-01T09:02:46.492Z,27.70
2022-10-01T09:05:17.626Z,28.10
2022-10-01T09:08:04.390Z,28.30
2022-10-01T09:10:32.489Z,28.40
2022-10-01T09:13:29.775Z,28.10
2022-10-01T09:16:10.031Z,28.10
2022-10-01T09:18:58.477Z,27.80
2022-10-01T09:21:34.089Z,27.50
2022-10-01T09:24:13.907Z,27.30
2022-10-01T09:26:47.145Z,27.30
2022-10-01T09:29:30.696Z,27.80
2022-10-01T09:32:02.525Z,28.40
2022-10-01T09:34:42.451Z,28.80
2022-10-01T09:37:28.678Z,29.00
2022-10-01T09:40:17.138Z,29.20
2022-10-01T09:42:45.454Z,30.00
2022-10-01T09:45:16.356Z,30.20
2022-10-01T09:47:48.732Z,30.00
2022-10-01T09:50:20.982Z,29.60
2022-10-01T09:52:51.870Z,29.20
2022-10-01T09:55:31.767Z,28.90
2022-10-01T09:58:10.124Z,28.70
2022-10-01T10:00:40.372Z,28.40
2022-10-01T10:03:08.757Z,28.30
2022-10-01T10:05:47.633Z,28.40
2022-10-01T10:08:39.548Z,28.80
2022-10-01T10:11:10.829Z,29.00
2022-10-01T10:13:51.174Z,29.20
2022-10-01T10:16:29.197Z,29.30
2022-10-01T10:19:15.381Z,29.60
2022-10-01T10:21:55.243Z,29.50
2022-10-01T10:24:27.327Z,29.10
2022-10-01T10:26:58.763Z,28.50
2022-10-01T10:29:37.589Z,28.40
2022-10-01T10:32:22.577Z,28.30
2022-10-01T10:34:51.679Z,27.60
2022-10-01T10:37:28.621Z,27.30
2022-10-01T10:39:58.406Z,27.10
2022-10-01T10:42:26.974Z,26.70
2022-10-01T10:45:01.110Z,26.90
2022-10-01T10:47:29.628Z,26.80
2022-10-01T10:50:00.958Z,26.70
2022-10-01T10:52:37.868Z,26.90
2022-10-01T10:55:24.417Z,27.80
2022-10-01T10:57:57.471Z,28.30
2022-10-01T11:00:26.863Z,28.80
2022-10-01T11:03:01.245Z,29.20
2022-10-01T11:05:32.396Z,29.10
2022-10-01T11:08:17.511Z,28.80
2022-10-01T11:10:45.935Z,28.40
2022-10-01T11:13:39.873Z,28.60
2022-10-01T11:16:35.197Z,28.80
2022-10-01T11:19:27.796Z,28.90
2022-10-01T11:22:17.097Z,29.20
2022-10-01T11:25:04.715Z,29.00
2022-10-01T11:27:37.066Z,28.60
2022-10-01T11:30:24.599Z,28.50
2022-10-01T11:33:21.592Z,28.60
2022-10-01T11:36:28.595Z,28.80
2022-10-01T11:39:01.619Z,29.20
2022-10-01T11:41:50.914Z,29.20
2022-10-01T11:44:35.531Z,29.60
2022-10-01T11:47:19.874Z,29.80
2022-10-01T11:50:00.127Z,30.00
2022-10-01T11:52:54.609Z,30.10
2022-10-01T11:55:25.579Z,30.00
2022-10-01T11:58:21.653Z,30.00
2022-10-01T12:01:01.295Z,29.60
2022-10-01T12:03:35.937Z,29.30
2022-10-01T12:06:07.590Z,29.40
2022-10-01T12:08:38.094Z,29.50
2022-10-01T12:11:31.668Z,29.80
2022-10-01T12:14:23.204Z,30.40
2022-10-01T12:17:00.332Z,30.40
2022-10-01T12:19:32.848Z,30.30
2022-10-01T12:22:12.016Z,30.40
2022-10-01T12:24:43.802Z,30.20
2022-10-01T12:27:20.829Z,29.90
2022-10-01T12:30:06.946Z,29.90
2022-10-01T12:32:50.936Z,29.70
2022-10-01T12:35:44.461Z,29.80
2022-10-01T12:38:27.094Z,29.50
2022-10-01T12:41:32.310Z,30.10
2022-10-01T12:44:26.564Z,29.90
2022-10-01T12:47:19.461Z,30.10
2022-10-01T12:49:58.818Z,29.80
2022-10-01T12:52:41.672Z,29.90
2022-10-01T12:55:37.458Z,30.20
2022-10-01T12:58:24.097Z,30.20
2022-10-01T13:01:06.078Z,30.20
2022-10-01T13:04:03.190Z,30.30
2022-10-01T13:06:47.261Z,30.20
2022-10-01T13:09:18.194Z,30.40
2022-10-01T13:12:23.053Z,30.00
2022-10-01T13:14:52.718Z,29.80
2022-10-01T13:17:37.053Z,29.70
2022-10-01T13:20:23.961Z,29.70
2022-10-01T13:22:55.036Z,30.00
2022-10-01T13:25:37.604Z,30.20
2022-10-01T13:28:12.130Z,29.70
2022-10-01T13:30:57.455Z,29.60
2022-10-01T13:33:31.743Z,29.40
2022-10-01T13:36:01.902Z,29.10
2022-10-01T13:38:31.820Z,29.20
2022-10-01T13:41:05.345Z,29.40
2022-10-01T13:43:35.467Z,29.30
2022-10-01T13:46:13.541Z,29.40
2022-10-01T13:48:48.722Z,29.10
2022-10-01T13:51:17.507Z,29.20
2022-10-01T13:53:45.639Z,29.00
2022-10-01T13:56:26.822Z,28.70
2022-10-01T13:58:56.029Z,28.40
2022-10-01T14:01:24.545Z,28.50
2022-10-01T14:04:09.744Z,28.60
2022-10-01T14:06:38.009Z,28.70
2022-10-01T14:09:21.534Z,29.00
2022-10-01T14:11:54.344Z,29.20
2022-10-01T14:14:41.133Z,28.90
2022-10-01T14:17:13.137Z,29.10
2022-10-01T14:19:47.320Z,29.30
2022-10-01T14:22:18.437Z,28.90
2022-10-01T14:24:55.898Z,29.00
2022-10-01T14:28:02.307Z,29.00
2022-10-01T14:30:56.628Z,29.40
2022-10-01T14:33:51.998Z,28.60
2022-10-01T14:36:35.924Z,28.30
2022-10-01T14:39:19.857Z,28.10
2022-10-01T14:41:51.340Z,27.80
2022-10-01T14:44:31.344Z,27.90
2022-10-01T14:47:01.094Z,27.70
2022-10-01T14:49:33.317Z,27.80
2022-10-01T14:52:17.373Z,27.90
2022-10-01T14:54:57.609Z,28.00
2022-10-01T14:57:40.501Z,27.80
2022-10-01T15:00:17.541Z,27.90
2022-10-01T15:02:49.743Z,27.80
2022-10-01T15:05:48.082Z,27.80
2022-10-01T15:08:23.618Z,28.10
2022-10-01T15:11:04.323Z,28.40
2022-10-01T15:13:38.986Z,28.60
2022-10-01T15:16:13.253Z,28.80
2022-10-01T15:19:01.800Z,28.30
2022-10-01T15:22:01.134Z,28.60
2022-10-01T15:24:40.863Z,28.90
2022-10-01T15:27:11.279Z,28.90
2022-10-01T15:29:41.660Z,28.80
2022-10-01T15:32:15.206Z,29.10
2022-10-01T15:34:49.257Z,28.90
2022-10-01T15:37:40.716Z,28.90
2022-10-01T15:40:39.428Z,28.90
2022-10-01T15:43:37.412Z,28.80
2022-10-01T15:46:05.662Z,28.90
2022-10-01T15:48:34.437Z,28.90
2022-10-01T15:51:28.792Z,29.10
2022-10-01T15:54:07.502Z,29.20
2022-10-01T15:56:36.208Z,29.10
2022-10-01T15:59:19.093Z,29.00
2022-10-01T16:01:47.369Z,29.20
2022-10-01T16:04:15.836Z,29.40
2022-10-01T16:06:51.876Z,29.50
2022-10-01T16:09:24.403Z,29.80
2022-10-01T16:12:02.747Z,30.10
2022-10-01T16:14:38.482Z,30.00
2022-10-01T16:17:18.590Z,30.10
2022-10-01T16:19:51.507Z,29.90
2022-10-01T16:22:36.124Z,29.80
2022-10-01T16:25:19.521Z,29.30
2022-10-01T16:27:50.370Z,29.20
2022-10-01T16:30:23.072Z,29.30
2022-10-01T16:32:51.810Z,29.70
2022-10-01T16:35:25.492Z,29.50
2022-10-01T16:37:55.898Z,29.00
2022-10-01T16:40:27.595Z,28.70
2022-10-01T16:42:56.204Z,28.50
2022-10-01T16:45:26.660Z,28.90
2022-10-01T16:47:56.792Z,29.20
2022-10-01T16:50:25.052Z,29.40
2022-10-01T16:52:54.191Z,29.10
2022-10-01T16:55:33.147Z,28.80
2022-10-01T16:58:01.314Z,28.70
2022-10-01T17:00:29.734Z,28.60
2022-10-01T17:02:58.707Z,28.20
2022-10-01T17:05:32.661Z,28.10
2022-10-01T17:08:01.015Z,27.80
2022-10-01T17:10:32.308Z,28.20
2022-10-01T17:13:00.672Z,28.20
2022-10-01T17:15:29.196Z,28.20
2022-10-01T17:18:00.243Z,28.10
2022-10-01T17:20:29.797Z,28.00
2022-10-01T17:22:59.234Z,28.10
2022-10-01T17:25:32.444Z,28.30
2022-10-01T17:28:02.070Z,28.10
2022-10-01T17:30:31.279Z,28.00
2022-10-01T17:33:00.915Z,27.60
2022-10-01T17:35:30.402Z,27.50
2022-10-01T17:37:58.714Z,27.60
2022-10-01T17:40:27.016Z,27.80
2022-10-01T17:42:55.376Z,27.80
2022-10-01T17:45:23.566Z,27.60
2022-10-01T17:47:51.805Z,27.40
2022-10-01T17:50:20.087Z,27.40
2022-10-01T17:52:48.992Z,27.70
2022-10-01T17:55:17.651Z,27.90
2022-10-01T17:57:45.965Z,27.80
2022-10-01T18:00:14.214Z,27.70
2022-10-01T18:02:43.290Z,27.30
2022-10-01T18:05:12.958Z,27.20
2022-10-01T18:07:42.205Z,27.20
2022-10-01T18:10:13.211Z,27.30
2022-10-01T18:12:41.655Z,27.40
2022-10-01T18:15:11.003Z,27.30
2022-10-01T18:17:43.558Z,27.10
2022-10-01T18:20:21.146Z,26.90
2022-10-01T18:22:50.095Z,26.90
2022-10-01T18:25:18.634Z,27.10
2022-10-01T18:27:48.215Z,27.20
2022-10-01T18:30:17.036Z,27.10
2022-10-01T18:32:50.118Z,27.10
2022-10-01T18:35:33.749Z,26.90
2022-10-01T18:38:23.362Z,26.70
2022-10-01T18:41:06.948Z,26.80
2022-10-01T18:43:39.161Z,26.80
2022-10-01T18:46:24.668Z,26.90
2022-10-01T18:49:19.503Z,26.90
2022-10-01T18:52:21.753Z,26.70
2022-10-01T18:55:20.982Z,26.60
2022-10-01T18:58:08.053Z,26.60
2022-10-01T19:00:58.678Z,27.00
2022-10-01T19:03:52.417Z,27.10
2022-10-01T19:06:57.823Z,27.00
2022-10-01T19:09:38.166Z,26.60
2022-10-01T19:12:09.090Z,26.50
2022-10-01T19:14:58.234Z,26.50
2022-10-01T19:17:42.075Z,26.60
2022-10-01T19:20:13.298Z,26.80
2022-10-01T19:22:53.591Z,26.60
2022-10-01T19:25:37.396Z,26.50
2022-10-01T19:28:11.406Z,26.40
2022-10-01T19:31:08.778Z,26.50
2022-10-01T19:33:49.389Z,26.70
2022-10-01T19:36:34.346Z,26.90
2022-10-01T19:40:19.790Z,27.00
2022-10-01T19:43:01.594Z,26.70
2022-10-01T19:46:10.061Z,26.60
2022-10-01T19:48:47.239Z,26.50
2022-10-01T19:51:20.234Z,26.60
2022-10-01T19:53:53.849Z,26.80
2022-10-01T19:56:27.743Z,26.90
2022-10-01T19:58:57.256Z,26.90
2022-10-01T20:01:34.792Z,26.90
2022-10-01T20:04:05.879Z,26.70
2022-10-01T20:06:37.804Z,26.50
2022-10-01T20:09:19.786Z,26.50
2022-10-01T20:12:02.936Z,26.50
2022-10-01T20:14:46.474Z,26.80
2022-10-01T20:17:58.097Z,26.90
2022-10-01T20:20:49.818Z,26.70
2022-10-01T20:23:36.377Z,26.50
2022-10-01T20:26:04.674Z,26.40
2022-10-01T20:28:52.914Z,26.60
2022-10-01T20:31:35.576Z,26.80
2022-10-01T20:34:22.413Z,27.00
2022-10-01T20:37:24.387Z,26.90
2022-10-01T20:40:03.116Z,26.80
2022-10-01T20:42:44.412Z,26.60
2022-10-01T20:45:27.959Z,26.50
2022-10-01T20:48:02.236Z,26.50
2022-10-01T20:50:40.126Z,26.90
2022-10-01T20:53:14.631Z,26.90
2022-10-01T20:55:49.228Z,26.60
2022-10-01T20:58:23.545Z,26.60
2022-10-01T21:00:59.192Z,26.50
2022-10-01T21:03:41.360Z,26.70
2022-10-01T21:06:20.200Z,27.00
2022-10-01T21:09:03.085Z,27.10
2022-10-01T21:11:37.349Z,27.00
2022-10-01T21:14:37.980Z,26.90
2022-10-01T21:17:18.940Z,26.70
2022-10-01T21:20:00.977Z,26.60
2022-10-01T21:22:36.417Z,26.50
2022-10-01T21:25:11.856Z,26.40
2022-10-01T21:28:21.129Z,26.50
2022-10-01T21:30:58.619Z,26.60
2022-10-01T21:33:37.330Z,26.60
2022-10-01T21:36:26.230Z,26.40
2022-10-01T21:38:56.451Z,26.30
2022-10-01T21:41:48.159Z,26.30
2022-10-01T21:44:44.201Z,26.50
2022-10-01T21:47:30.903Z,26.80
2022-10-01T21:50:22.937Z,26.80
2022-10-01T21:52:56.933Z,26.70
2022-10-01T21:55:31.133Z,26.40
2022-10-01T21:58:14.140Z,26.20
2022-10-01T22:00:43.456Z,26.10
2022-10-01T22:03:26.943Z,26.00
2022-10-01T22:06:25.309Z,26.30
2022-10-01T22:08:53.437Z,26.50
2022-10-01T22:11:25.977Z,26.40
2022-10-01T22:14:01.756Z,26.20
2022-10-01T22:16:41.542Z,26.10
2022-10-01T22:19:17.008Z,26.10
2022-10-01T22:21:48.571Z,26.10
2022-10-01T22:24:21.320Z,26.40
2022-10-01T22:27:09.916Z,26.60
2022-10-01T22:29:43.007Z,26.60
2022-10-01T22:32:14.069Z,26.60
2022-10-01T22:34:47.274Z,26.60
2022-10-01T22:37:21.146Z,26.30
2022-10-01T22:40:10.275Z,26.20
2022-10-01T22:42:44.303Z,26.10
2022-10-01T22:45:18.306Z,26.10
2022-10-01T22:48:13.655Z,26.30
2022-10-01T22:51:15.194Z,26.70
2022-10-01T22:54:08.978Z,26.50
2022-10-01T22:56:54.507Z,26.30
2022-10-01T22:59:50.236Z,26.20
2022-10-01T23:02:37.161Z,26.20
2022-10-01T23:05:30.940Z,26.20
2022-10-01T23:08:11.350Z,26.60
2022-10-01T23:10:50.347Z,26.70
2022-10-01T23:13:36.044Z,26.70
2022-10-01T23:16:44.613Z,26.80
2022-10-01T23:19:37.543Z,26.60
2022-10-01T23:22:34.470Z,26.30
2022-10-01T23:25:34.697Z,26.30
2022-10-01T23:28:21.485Z,26.20
2022-10-01T23:31:17.401Z,26.20
2022-10-01T23:33:51.873Z,26.50
2022-10-01T23:36:48.371Z,26.60
2022-10-01T23:39:36.973Z,26.40
2022-10-01T23:42:19.834Z,26.20
2022-10-01T23:45:20.422Z,26.10
2022-10-01T23:48:18.021Z,26.20
2022-10-01T23:50:52.473Z,26.50
2022-10-01T23:53:34.668Z,26.60
2022-10-01T23:56:20.003Z,26.60
2022-10-01T23:59:16.550Z,26.50
